sensor_id;sensor_type;location;lat;lon;timestamp;P1;durP1;ratioP1;P2;durP2;ratioP2
77513;SDS011;66626;48.872;9.084;2023-12-20T00:00:19;4.45;;;1.60;;
77513;SDS011;66626;48.872;9.084;2023-12-20T00:02:45;4.15;;;1.38;;
77513;SDS011;66626;48.872;9.084;2023-12-20T00:05:12;3.85;;;1.38;;
77513;SDS011;66626;48.872;9.084;2023-12-20T00:07:38;3.65;;;1.55;;
77513;SDS011;66626;48.872;9.084;2023-12-20T00:10:04;5.15;;;1.90;;
77513;SDS011;66626;48.872;9.084;2023-12-20T00:12:29;7.15;;;2.15;;
77513;SDS011;66626;48.872;9.084;2023-12-20T00:14:54;4.22;;;1.40;;
77513;SDS011;66626;48.872;9.084;2023-12-20T00:17:20;3.65;;;1.27;;
77513;SDS011;66626;48.872;9.084;2023-12-20T00:19:45;4.35;;;2.03;;
77513;SDS011;66626;48.872;9.084;2023-12-20T00:22:10;4.30;;;1.80;;
77513;SDS011;66626;48.872;9.084;2023-12-20T00:24:36;4.50;;;1.83;;
77513;SDS011;66626;48.872;9.084;2023-12-20T00:27:01;4.70;;;1.65;;
77513;SDS011;66626;48.872;9.084;2023-12-20T00:29:27;3.38;;;1.38;;
77513;SDS011;66626;48.872;9.084;2023-12-20T00:31:52;3.35;;;1.30;;
77513;SDS011;66626;48.872;9.084;2023-12-20T00:34:18;3.15;;;1.38;;
77513;SDS011;66626;48.872;9.084;2023-12-20T00:36:43;3.30;;;1.35;;
77513;SDS011;66626;48.872;9.084;2023-12-20T00:39:08;3.55;;;1.60;;
77513;SDS011;66626;48.872;9.084;2023-12-20T00:41:33;4.35;;;1.80;;
77513;SDS011;66626;48.872;9.084;2023-12-20T00:43:59;4.55;;;1.80;;
77513;SDS011;66626;48.872;9.084;2023-12-20T00:46:24;4.07;;;1.48;;
77513;SDS011;66626;48.872;9.084;2023-12-20T00:48:49;3.80;;;1.80;;
77513;SDS011;66626;48.872;9.084;2023-12-20T00:51:15;4.25;;;1.90;;
77513;SDS011;66626;48.872;9.084;2023-12-20T00:53:40;3.92;;;1.83;;
77513;SDS011;66626;48.872;9.084;2023-12-20T00:56:05;4.05;;;1.40;;
77513;SDS011;66626;48.872;9.084;2023-12-20T00:58:31;3.35;;;1.52;;
77513;SDS011;66626;48.872;9.084;2023-12-20T01:00:57;4.35;;;1.77;;
77513;SDS011;66626;48.872;9.084;2023-12-20T01:03:23;3.88;;;1.40;;
77513;SDS011;66626;48.872;9.084;2023-12-20T01:05:48;3.42;;;1.50;;
77513;SDS011;66626;48.872;9.084;2023-12-20T01:08:13;4.03;;;1.77;;
77513;SDS011;66626;48.872;9.084;2023-12-20T01:10:39;4.45;;;1.55;;
77513;SDS011;66626;48.872;9.084;2023-12-20T01:13:05;4.65;;;1.60;;
77513;SDS011;66626;48.872;9.084;2023-12-20T01:15:30;4.30;;;2.05;;
77513;SDS011;66626;48.872;9.084;2023-12-20T01:17:55;4.22;;;1.90;;
77513;SDS011;66626;48.872;9.084;2023-12-20T01:20:23;3.70;;;1.63;;
77513;SDS011;66626;48.872;9.084;2023-12-20T01:22:48;4.22;;;1.58;;
77513;SDS011;66626;48.872;9.084;2023-12-20T01:25:14;5.45;;;1.90;;
77513;SDS011;66626;48.872;9.084;2023-12-20T01:27:39;3.72;;;1.63;;
77513;SDS011;66626;48.872;9.084;2023-12-20T01:30:05;3.83;;;1.83;;
77513;SDS011;66626;48.872;9.084;2023-12-20T01:32:31;3.92;;;1.65;;
77513;SDS011;66626;48.872;9.084;2023-12-20T01:34:56;5.38;;;2.28;;
77513;SDS011;66626;48.872;9.084;2023-12-20T01:37:21;4.70;;;2.10;;
77513;SDS011;66626;48.872;9.084;2023-12-20T01:39:48;3.90;;;1.83;;
77513;SDS011;66626;48.872;9.084;2023-12-20T01:42:14;5.50;;;2.00;;
77513;SDS011;66626;48.872;9.084;2023-12-20T01:44:39;5.55;;;2.05;;
77513;SDS011;66626;48.872;9.084;2023-12-20T01:47:04;4.53;;;1.85;;
77513;SDS011;66626;48.872;9.084;2023-12-20T01:49:30;4.95;;;2.40;;
77513;SDS011;66626;48.872;9.084;2023-12-20T01:51:55;3.72;;;1.95;;
77513;SDS011;66626;48.872;9.084;2023-12-20T01:54:21;5.30;;;2.42;;
77513;SDS011;66626;48.872;9.084;2023-12-20T01:56:46;6.43;;;1.80;;
77513;SDS011;66626;48.872;9.084;2023-12-20T01:59:14;4.00;;;1.50;;
77513;SDS011;66626;48.872;9.084;2023-12-20T02:01:39;7.30;;;2.17;;
77513;SDS011;66626;48.872;9.084;2023-12-20T02:04:04;3.83;;;1.95;;
77513;SDS011;66626;48.872;9.084;2023-12-20T02:06:30;6.22;;;1.98;;
77513;SDS011;66626;48.872;9.084;2023-12-20T02:08:58;3.95;;;1.77;;
77513;SDS011;66626;48.872;9.084;2023-12-20T02:11:24;4.38;;;1.65;;
77513;SDS011;66626;48.872;9.084;2023-12-20T02:13:50;3.13;;;1.45;;
77513;SDS011;66626;48.872;9.084;2023-12-20T02:16:15;4.25;;;1.70;;
77513;SDS011;66626;48.872;9.084;2023-12-20T02:18:42;3.92;;;1.90;;
77513;SDS011;66626;48.872;9.084;2023-12-20T02:21:09;3.05;;;1.08;;
77513;SDS011;66626;48.872;9.084;2023-12-20T02:23:34;3.47;;;1.45;;
77513;SDS011;66626;48.872;9.084;2023-12-20T02:25:59;2.22;;;1.00;;
77513;SDS011;66626;48.872;9.084;2023-12-20T02:28:25;1.00;;;0.32;;
77513;SDS011;66626;48.872;9.084;2023-12-20T02:30:50;0.75;;;0.30;;
77513;SDS011;66626;48.872;9.084;2023-12-20T02:33:15;1.35;;;0.70;;
77513;SDS011;66626;48.872;9.084;2023-12-20T02:35:41;0.52;;;0.30;;
77513;SDS011;66626;48.872;9.084;2023-12-20T02:38:06;0.85;;;0.40;;
77513;SDS011;66626;48.872;9.084;2023-12-20T02:40:32;0.32;;;0.30;;
77513;SDS011;66626;48.872;9.084;2023-12-20T02:42:57;1.20;;;0.30;;
77513;SDS011;66626;48.872;9.084;2023-12-20T02:45:22;0.77;;;0.40;;
77513;SDS011;66626;48.872;9.084;2023-12-20T02:47:48;0.50;;;0.20;;
77513;SDS011;66626;48.872;9.084;2023-12-20T02:50:13;0.43;;;0.10;;
77513;SDS011;66626;48.872;9.084;2023-12-20T02:52:38;2.25;;;0.60;;
77513;SDS011;66626;48.872;9.084;2023-12-20T02:55:04;1.23;;;0.50;;
77513;SDS011;66626;48.872;9.084;2023-12-20T02:57:29;0.93;;;0.45;;
77513;SDS011;66626;48.872;9.084;2023-12-20T02:59:54;1.00;;;0.45;;
77513;SDS011;66626;48.872;9.084;2023-12-20T03:02:20;0.43;;;0.20;;
77513;SDS011;66626;48.872;9.084;2023-12-20T03:04:45;0.88;;;0.45;;
77513;SDS011;66626;48.872;9.084;2023-12-20T03:07:10;2.55;;;0.45;;
77513;SDS011;66626;48.872;9.084;2023-12-20T03:09:37;1.88;;;0.70;;
77513;SDS011;66626;48.872;9.084;2023-12-20T03:12:02;1.08;;;0.52;;
77513;SDS011;66626;48.872;9.084;2023-12-20T03:14:28;1.27;;;0.70;;
77513;SDS011;66626;48.872;9.084;2023-12-20T03:16:53;0.65;;;0.38;;
77513;SDS011;66626;48.872;9.084;2023-12-20T03:19:18;1.42;;;0.43;;
77513;SDS011;66626;48.872;9.084;2023-12-20T03:21:44;1.08;;;0.30;;
77513;SDS011;66626;48.872;9.084;2023-12-20T03:24:09;1.00;;;0.50;;
77513;SDS011;66626;48.872;9.084;2023-12-20T03:26:35;2.28;;;0.68;;
77513;SDS011;66626;48.872;9.084;2023-12-20T03:29:00;0.10;;;0.10;;
77513;SDS011;66626;48.872;9.084;2023-12-20T03:31:25;0.90;;;0.20;;
77513;SDS011;66626;48.872;9.084;2023-12-20T03:33:51;1.42;;;0.70;;
77513;SDS011;66626;48.872;9.084;2023-12-20T03:36:18;0.80;;;0.30;;
77513;SDS011;66626;48.872;9.084;2023-12-20T03:38:44;0.63;;;0.32;;
77513;SDS011;66626;48.872;9.084;2023-12-20T03:41:09;0.20;;;0.15;;
77513;SDS011;66626;48.872;9.084;2023-12-20T03:43:35;1.05;;;0.50;;
77513;SDS011;66626;48.872;9.084;2023-12-20T03:46:00;0.65;;;0.40;;
77513;SDS011;66626;48.872;9.084;2023-12-20T03:48:25;0.60;;;0.35;;
77513;SDS011;66626;48.872;9.084;2023-12-20T03:50:51;1.00;;;0.40;;
77513;SDS011;66626;48.872;9.084;2023-12-20T03:53:16;0.90;;;0.40;;
77513;SDS011;66626;48.872;9.084;2023-12-20T03:55:41;1.65;;;0.40;;
77513;SDS011;66626;48.872;9.084;2023-12-20T03:58:07;1.40;;;0.38;;
77513;SDS011;66626;48.872;9.084;2023-12-20T04:00:32;1.48;;;0.60;;
77513;SDS011;66626;48.872;9.084;2023-12-20T04:02:57;1.15;;;0.40;;
77513;SDS011;66626;48.872;9.084;2023-12-20T04:05:23;1.05;;;0.55;;
77513;SDS011;66626;48.872;9.084;2023-12-20T04:07:48;2.10;;;0.47;;
77513;SDS011;66626;48.872;9.084;2023-12-20T04:10:15;1.40;;;0.40;;
77513;SDS011;66626;48.872;9.084;2023-12-20T04:12:40;0.93;;;0.22;;
77513;SDS011;66626;48.872;9.084;2023-12-20T04:15:06;1.00;;;0.50;;
77513;SDS011;66626;48.872;9.084;2023-12-20T04:17:34;3.20;;;0.50;;
77513;SDS011;66626;48.872;9.084;2023-12-20T04:19:59;1.35;;;0.50;;
77513;SDS011;66626;48.872;9.084;2023-12-20T04:22:25;0.38;;;0.25;;
77513;SDS011;66626;48.872;9.084;2023-12-20T04:24:50;0.98;;;0.50;;
77513;SDS011;66626;48.872;9.084;2023-12-20T04:27:15;1.17;;;0.40;;
77513;SDS011;66626;48.872;9.084;2023-12-20T04:29:41;0.63;;;0.30;;
77513;SDS011;66626;48.872;9.084;2023-12-20T04:32:06;1.45;;;0.50;;
77513;SDS011;66626;48.872;9.084;2023-12-20T04:34:31;1.50;;;0.50;;
77513;SDS011;66626;48.872;9.084;2023-12-20T04:36:57;1.60;;;0.73;;
77513;SDS011;66626;48.872;9.084;2023-12-20T04:39:22;0.82;;;0.30;;
77513;SDS011;66626;48.872;9.084;2023-12-20T04:41:47;1.58;;;0.57;;
77513;SDS011;66626;48.872;9.084;2023-12-20T04:44:13;0.65;;;0.30;;
77513;SDS011;66626;48.872;9.084;2023-12-20T04:46:39;0.55;;;0.50;;
77513;SDS011;66626;48.872;9.084;2023-12-20T04:49:04;0.85;;;0.40;;
77513;SDS011;66626;48.872;9.084;2023-12-20T04:51:30;0.95;;;0.50;;
77513;SDS011;66626;48.872;9.084;2023-12-20T04:53:58;1.05;;;0.32;;
77513;SDS011;66626;48.872;9.084;2023-12-20T04:56:23;1.70;;;0.70;;
77513;SDS011;66626;48.872;9.084;2023-12-20T04:58:49;0.85;;;0.30;;
77513;SDS011;66626;48.872;9.084;2023-12-20T05:01:14;0.75;;;0.32;;
77513;SDS011;66626;48.872;9.084;2023-12-20T05:03:39;0.75;;;0.30;;
77513;SDS011;66626;48.872;9.084;2023-12-20T05:06:05;0.70;;;0.40;;
77513;SDS011;66626;48.872;9.084;2023-12-20T05:08:30;1.38;;;0.60;;
77513;SDS011;66626;48.872;9.084;2023-12-20T05:10:56;1.15;;;0.52;;
77513;SDS011;66626;48.872;9.084;2023-12-20T05:13:21;1.50;;;0.93;;
77513;SDS011;66626;48.872;9.084;2023-12-20T05:15:46;1.75;;;0.80;;
77513;SDS011;66626;48.872;9.084;2023-12-20T05:18:12;1.42;;;0.70;;
77513;SDS011;66626;48.872;9.084;2023-12-20T05:20:38;2.45;;;0.80;;
77513;SDS011;66626;48.872;9.084;2023-12-20T05:23:03;3.45;;;1.20;;
77513;SDS011;66626;48.872;9.084;2023-12-20T05:25:28;1.35;;;0.50;;
77513;SDS011;66626;48.872;9.084;2023-12-20T05:27:54;2.58;;;1.00;;
77513;SDS011;66626;48.872;9.084;2023-12-20T05:30:19;2.65;;;0.93;;
77513;SDS011;66626;48.872;9.084;2023-12-20T05:32:44;2.60;;;1.15;;
77513;SDS011;66626;48.872;9.084;2023-12-20T05:35:10;2.65;;;1.08;;
77513;SDS011;66626;48.872;9.084;2023-12-20T05:37:35;3.35;;;1.00;;
77513;SDS011;66626;48.872;9.084;2023-12-20T05:40:00;3.80;;;1.60;;
77513;SDS011;66626;48.872;9.084;2023-12-20T05:42:26;2.15;;;1.05;;
77513;SDS011;66626;48.872;9.084;2023-12-20T05:44:51;4.40;;;1.30;;
77513;SDS011;66626;48.872;9.084;2023-12-20T05:47:16;3.08;;;1.30;;
77513;SDS011;66626;48.872;9.084;2023-12-20T05:49:43;2.67;;;0.95;;
77513;SDS011;66626;48.872;9.084;2023-12-20T05:52:09;2.90;;;1.27;;
77513;SDS011;66626;48.872;9.084;2023-12-20T05:54:34;3.03;;;0.93;;
77513;SDS011;66626;48.872;9.084;2023-12-20T05:56:59;3.22;;;1.30;;
77513;SDS011;66626;48.872;9.084;2023-12-20T05:59:25;2.42;;;0.90;;
77513;SDS011;66626;48.872;9.084;2023-12-20T06:01:51;2.33;;;0.90;;
77513;SDS011;66626;48.872;9.084;2023-12-20T06:04:16;2.75;;;1.10;;
77513;SDS011;66626;48.872;9.084;2023-12-20T06:06:42;2.80;;;0.90;;
77513;SDS011;66626;48.872;9.084;2023-12-20T06:09:07;1.73;;;0.80;;
77513;SDS011;66626;48.872;9.084;2023-12-20T06:11:33;3.25;;;1.27;;
77513;SDS011;66626;48.872;9.084;2023-12-20T06:13:58;3.42;;;1.35;;
77513;SDS011;66626;48.872;9.084;2023-12-20T06:16:23;1.60;;;0.93;;
77513;SDS011;66626;48.872;9.084;2023-12-20T06:18:49;2.72;;;1.02;;
77513;SDS011;66626;48.872;9.084;2023-12-20T06:21:14;2.13;;;1.00;;
77513;SDS011;66626;48.872;9.084;2023-12-20T06:23:40;2.88;;;1.15;;
77513;SDS011;66626;48.872;9.084;2023-12-20T06:26:05;3.75;;;1.48;;
77513;SDS011;66626;48.872;9.084;2023-12-20T06:28:30;3.05;;;1.30;;
77513;SDS011;66626;48.872;9.084;2023-12-20T06:30:56;3.95;;;1.40;;
77513;SDS011;66626;48.872;9.084;2023-12-20T06:33:22;3.35;;;1.30;;
77513;SDS011;66626;48.872;9.084;2023-12-20T06:35:48;6.13;;;1.50;;
77513;SDS011;66626;48.872;9.084;2023-12-20T06:38:13;2.97;;;1.33;;
77513;SDS011;66626;48.872;9.084;2023-12-20T06:40:39;4.40;;;1.58;;
77513;SDS011;66626;48.872;9.084;2023-12-20T06:43:04;4.13;;;1.58;;
77513;SDS011;66626;48.872;9.084;2023-12-20T06:45:31;3.95;;;1.67;;
77513;SDS011;66626;48.872;9.084;2023-12-20T06:47:56;4.47;;;1.73;;
77513;SDS011;66626;48.872;9.084;2023-12-20T06:50:22;4.55;;;2.10;;
77513;SDS011;66626;48.872;9.084;2023-12-20T06:52:47;6.10;;;2.50;;
77513;SDS011;66626;48.872;9.084;2023-12-20T06:55:13;5.78;;;3.00;;
77513;SDS011;66626;48.872;9.084;2023-12-20T06:57:38;5.43;;;2.53;;
77513;SDS011;66626;48.872;9.084;2023-12-20T07:00:03;5.13;;;2.35;;
77513;SDS011;66626;48.872;9.084;2023-12-20T07:02:29;6.18;;;3.13;;
77513;SDS011;66626;48.872;9.084;2023-12-20T07:04:55;5.18;;;2.55;;
77513;SDS011;66626;48.872;9.084;2023-12-20T07:07:20;5.40;;;2.55;;
77513;SDS011;66626;48.872;9.084;2023-12-20T07:09:48;7.07;;;3.25;;
77513;SDS011;66626;48.872;9.084;2023-12-20T07:12:13;6.20;;;3.45;;
77513;SDS011;66626;48.872;9.084;2023-12-20T07:14:38;6.13;;;3.08;;
77513;SDS011;66626;48.872;9.084;2023-12-20T07:17:04;6.03;;;2.95;;
77513;SDS011;66626;48.872;9.084;2023-12-20T07:19:29;5.53;;;2.42;;
77513;SDS011;66626;48.872;9.084;2023-12-20T07:21:54;6.43;;;2.75;;
77513;SDS011;66626;48.872;9.084;2023-12-20T07:24:20;4.80;;;2.28;;
77513;SDS011;66626;48.872;9.084;2023-12-20T07:26:45;5.82;;;2.33;;
77513;SDS011;66626;48.872;9.084;2023-12-20T07:29:10;3.92;;;2.00;;
77513;SDS011;66626;48.872;9.084;2023-12-20T07:31:36;7.18;;;2.58;;
77513;SDS011;66626;48.872;9.084;2023-12-20T07:34:01;3.60;;;2.00;;
77513;SDS011;66626;48.872;9.084;2023-12-20T07:36:26;4.90;;;2.50;;
77513;SDS011;66626;48.872;9.084;2023-12-20T07:38:52;4.32;;;1.77;;
77513;SDS011;66626;48.872;9.084;2023-12-20T07:41:17;5.15;;;2.65;;
77513;SDS011;66626;48.872;9.084;2023-12-20T07:43:46;4.28;;;1.92;;
77513;SDS011;66626;48.872;9.084;2023-12-20T07:46:11;5.45;;;2.83;;
77513;SDS011;66626;48.872;9.084;2023-12-20T07:48:36;5.60;;;2.65;;
77513;SDS011;66626;48.872;9.084;2023-12-20T07:51:02;5.82;;;2.30;;
77513;SDS011;66626;48.872;9.084;2023-12-20T07:53:28;5.57;;;2.17;;
77513;SDS011;66626;48.872;9.084;2023-12-20T07:55:54;4.15;;;2.03;;
77513;SDS011;66626;48.872;9.084;2023-12-20T07:58:20;3.47;;;2.10;;
77513;SDS011;66626;48.872;9.084;2023-12-20T08:00:45;7.93;;;2.28;;
77513;SDS011;66626;48.872;9.084;2023-12-20T08:03:10;5.68;;;2.40;;
77513;SDS011;66626;48.872;9.084;2023-12-20T08:05:35;5.15;;;2.63;;
77513;SDS011;66626;48.872;9.084;2023-12-20T08:08:05;4.53;;;2.35;;
77513;SDS011;66626;48.872;9.084;2023-12-20T08:10:31;4.60;;;2.15;;
77513;SDS011;66626;48.872;9.084;2023-12-20T08:12:56;6.20;;;2.63;;
77513;SDS011;66626;48.872;9.084;2023-12-20T08:15:22;5.22;;;2.20;;
77513;SDS011;66626;48.872;9.084;2023-12-20T08:17:47;5.68;;;2.17;;
77513;SDS011;66626;48.872;9.084;2023-12-20T08:20:12;5.32;;;2.30;;
77513;SDS011;66626;48.872;9.084;2023-12-20T08:22:38;7.25;;;2.22;;
77513;SDS011;66626;48.872;9.084;2023-12-20T08:25:03;7.25;;;2.33;;
77513;SDS011;66626;48.872;9.084;2023-12-20T08:27:29;5.72;;;2.10;;
77513;SDS011;66626;48.872;9.084;2023-12-20T08:29:56;5.82;;;1.90;;
77513;SDS011;66626;48.872;9.084;2023-12-20T08:32:21;7.88;;;2.67;;
77513;SDS011;66626;48.872;9.084;2023-12-20T08:34:46;6.03;;;2.85;;
77513;SDS011;66626;48.872;9.084;2023-12-20T08:37:12;3.63;;;1.63;;
77513;SDS011;66626;48.872;9.084;2023-12-20T08:39:37;5.45;;;2.40;;
77513;SDS011;66626;48.872;9.084;2023-12-20T08:42:02;4.18;;;1.75;;
77513;SDS011;66626;48.872;9.084;2023-12-20T08:44:28;5.45;;;2.53;;
77513;SDS011;66626;48.872;9.084;2023-12-20T08:46:53;6.13;;;2.58;;
77513;SDS011;66626;48.872;9.084;2023-12-20T08:49:22;4.55;;;1.80;;
77513;SDS011;66626;48.872;9.084;2023-12-20T08:51:47;4.88;;;2.22;;
77513;SDS011;66626;48.872;9.084;2023-12-20T08:54:12;7.80;;;1.98;;
77513;SDS011;66626;48.872;9.084;2023-12-20T08:56:38;6.10;;;2.47;;
77513;SDS011;66626;48.872;9.084;2023-12-20T08:59:03;4.10;;;1.67;;
77513;SDS011;66626;48.872;9.084;2023-12-20T09:01:28;3.97;;;1.83;;
77513;SDS011;66626;48.872;9.084;2023-12-20T09:03:54;4.60;;;1.90;;
77513;SDS011;66626;48.872;9.084;2023-12-20T09:06:19;5.38;;;2.17;;
77513;SDS011;66626;48.872;9.084;2023-12-20T09:08:44;4.57;;;2.05;;
77513;SDS011;66626;48.872;9.084;2023-12-20T09:11:10;6.28;;;1.90;;
77513;SDS011;66626;48.872;9.084;2023-12-20T09:13:36;6.70;;;2.38;;
77513;SDS011;66626;48.872;9.084;2023-12-20T09:16:02;3.75;;;1.70;;
77513;SDS011;66626;48.872;9.084;2023-12-20T09:18:27;3.90;;;1.38;;
77513;SDS011;66626;48.872;9.084;2023-12-20T09:20:54;4.38;;;1.75;;
77513;SDS011;66626;48.872;9.084;2023-12-20T09:23:19;5.55;;;1.58;;
77513;SDS011;66626;48.872;9.084;2023-12-20T09:25:45;3.65;;;1.52;;
77513;SDS011;66626;48.872;9.084;2023-12-20T09:28:10;5.00;;;1.70;;
77513;SDS011;66626;48.872;9.084;2023-12-20T09:30:35;3.88;;;1.50;;
77513;SDS011;66626;48.872;9.084;2023-12-20T09:33:04;6.63;;;1.48;;
77513;SDS011;66626;48.872;9.084;2023-12-20T09:35:30;4.30;;;1.23;;
77513;SDS011;66626;48.872;9.084;2023-12-20T09:37:55;2.85;;;1.23;;
77513;SDS011;66626;48.872;9.084;2023-12-20T09:40:20;3.50;;;0.95;;
77513;SDS011;66626;48.872;9.084;2023-12-20T09:42:48;4.45;;;1.17;;
77513;SDS011;66626;48.872;9.084;2023-12-20T09:45:21;2.80;;;1.00;;
77513;SDS011;66626;48.872;9.084;2023-12-20T09:47:47;4.10;;;0.93;;
77513;SDS011;66626;48.872;9.084;2023-12-20T09:50:14;3.38;;;1.05;;
77513;SDS011;66626;48.872;9.084;2023-12-20T09:52:39;2.10;;;0.68;;
77513;SDS011;66626;48.872;9.084;2023-12-20T09:55:05;5.38;;;1.50;;
77513;SDS011;66626;48.872;9.084;2023-12-20T09:57:32;5.03;;;1.48;;
77513;SDS011;66626;48.872;9.084;2023-12-20T09:59:57;6.63;;;1.60;;
77513;SDS011;66626;48.872;9.084;2023-12-20T10:02:24;4.78;;;1.58;;
77513;SDS011;66626;48.872;9.084;2023-12-20T10:04:52;5.43;;;1.40;;
77513;SDS011;66626;48.872;9.084;2023-12-20T10:07:17;5.05;;;1.15;;
77513;SDS011;66626;48.872;9.084;2023-12-20T10:09:42;3.33;;;1.42;;
77513;SDS011;66626;48.872;9.084;2023-12-20T10:12:09;4.00;;;1.33;;
77513;SDS011;66626;48.872;9.084;2023-12-20T10:14:34;5.95;;;1.50;;
77513;SDS011;66626;48.872;9.084;2023-12-20T10:17:03;7.57;;;1.55;;
77513;SDS011;66626;48.872;9.084;2023-12-20T10:19:28;2.33;;;0.90;;
77513;SDS011;66626;48.872;9.084;2023-12-20T10:21:54;9.23;;;1.75;;
77513;SDS011;66626;48.872;9.084;2023-12-20T10:24:19;7.15;;;1.65;;
77513;SDS011;66626;48.872;9.084;2023-12-20T10:26:45;3.60;;;1.08;;
77513;SDS011;66626;48.872;9.084;2023-12-20T10:29:11;10.05;;;1.45;;
77513;SDS011;66626;48.872;9.084;2023-12-20T10:31:36;8.70;;;1.45;;
77513;SDS011;66626;48.872;9.084;2023-12-20T10:34:03;9.60;;;1.63;;
77513;SDS011;66626;48.872;9.084;2023-12-20T10:36:30;4.10;;;1.27;;
77513;SDS011;66626;48.872;9.084;2023-12-20T10:38:56;5.43;;;1.35;;
77513;SDS011;66626;48.872;9.084;2023-12-20T10:41:28;8.45;;;1.42;;
77513;SDS011;66626;48.872;9.084;2023-12-20T10:43:59;4.93;;;1.40;;
77513;SDS011;66626;48.872;9.084;2023-12-20T10:46:26;5.75;;;2.17;;
77513;SDS011;66626;48.872;9.084;2023-12-20T10:48:53;8.48;;;1.67;;
77513;SDS011;66626;48.872;9.084;2023-12-20T10:51:19;2.85;;;1.17;;
77513;SDS011;66626;48.872;9.084;2023-12-20T10:53:46;2.55;;;1.13;;
77513;SDS011;66626;48.872;9.084;2023-12-20T10:56:12;5.80;;;1.00;;
77513;SDS011;66626;48.872;9.084;2023-12-20T10:58:41;2.90;;;0.65;;
77513;SDS011;66626;48.872;9.084;2023-12-20T11:01:08;3.53;;;1.00;;
77513;SDS011;66626;48.872;9.084;2023-12-20T11:03:34;3.42;;;1.00;;
77513;SDS011;66626;48.872;9.084;2023-12-20T11:06:03;7.10;;;1.40;;
77513;SDS011;66626;48.872;9.084;2023-12-20T11:12:18;3.75;;;1.25;;
77513;SDS011;66626;48.872;9.084;2023-12-20T11:14:43;2.83;;;0.80;;
77513;SDS011;66626;48.872;9.084;2023-12-20T11:17:12;2.20;;;0.80;;
77513;SDS011;66626;48.872;9.084;2023-12-20T11:22:29;5.15;;;1.40;;
77513;SDS011;66626;48.872;9.084;2023-12-20T11:25:02;3.97;;;1.23;;
77513;SDS011;66626;48.872;9.084;2023-12-20T11:27:28;3.47;;;1.10;;
77513;SDS011;66626;48.872;9.084;2023-12-20T11:29:58;4.70;;;1.08;;
77513;SDS011;66626;48.872;9.084;2023-12-20T11:34:57;4.18;;;1.38;;
77513;SDS011;66626;48.872;9.084;2023-12-20T11:37:30;7.65;;;1.40;;
77513;SDS011;66626;48.872;9.084;2023-12-20T11:40:00;4.20;;;1.17;;
77513;SDS011;66626;48.872;9.084;2023-12-20T11:42:27;5.82;;;1.25;;
77513;SDS011;66626;48.872;9.084;2023-12-20T11:44:53;3.35;;;1.13;;
77513;SDS011;66626;48.872;9.084;2023-12-20T11:47:18;5.35;;;1.48;;
77513;SDS011;66626;48.872;9.084;2023-12-20T11:49:46;5.43;;;1.25;;
77513;SDS011;66626;48.872;9.084;2023-12-20T11:52:13;7.13;;;2.72;;
77513;SDS011;66626;48.872;9.084;2023-12-20T11:54:38;4.38;;;1.42;;
77513;SDS011;66626;48.872;9.084;2023-12-20T11:57:04;6.38;;;1.80;;
77513;SDS011;66626;48.872;9.084;2023-12-20T11:59:30;7.07;;;2.25;;
77513;SDS011;66626;48.872;9.084;2023-12-20T12:01:56;10.05;;;2.08;;
77513;SDS011;66626;48.872;9.084;2023-12-20T12:04:25;9.00;;;2.25;;
77513;SDS011;66626;48.872;9.084;2023-12-20T12:06:51;6.85;;;1.60;;
77513;SDS011;66626;48.872;9.084;2023-12-20T12:09:16;2.90;;;0.85;;
77513;SDS011;66626;48.872;9.084;2023-12-20T12:11:42;3.63;;;1.42;;
77513;SDS011;66626;48.872;9.084;2023-12-20T12:14:08;6.45;;;1.65;;
77513;SDS011;66626;48.872;9.084;2023-12-20T12:16:33;5.18;;;1.77;;
77513;SDS011;66626;48.872;9.084;2023-12-20T12:18:58;3.10;;;1.40;;
77513;SDS011;66626;48.872;9.084;2023-12-20T12:21:24;5.65;;;1.70;;
77513;SDS011;66626;48.872;9.084;2023-12-20T12:23:50;5.10;;;1.20;;
77513;SDS011;66626;48.872;9.084;2023-12-20T12:26:15;6.95;;;1.20;;
77513;SDS011;66626;48.872;9.084;2023-12-20T12:28:41;4.82;;;1.60;;
77513;SDS011;66626;48.872;9.084;2023-12-20T12:31:07;3.05;;;1.13;;
77513;SDS011;66626;48.872;9.084;2023-12-20T12:33:33;6.60;;;1.05;;
77513;SDS011;66626;48.872;9.084;2023-12-20T12:35:59;7.45;;;2.20;;
77513;SDS011;66626;48.872;9.084;2023-12-20T12:38:29;6.40;;;1.95;;
77513;SDS011;66626;48.872;9.084;2023-12-20T12:40:55;2.80;;;1.45;;
77513;SDS011;66626;48.872;9.084;2023-12-20T12:43:20;3.45;;;1.20;;
77513;SDS011;66626;48.872;9.084;2023-12-20T12:45:47;5.97;;;1.38;;
77513;SDS011;66626;48.872;9.084;2023-12-20T12:48:13;4.13;;;0.85;;
77513;SDS011;66626;48.872;9.084;2023-12-20T12:50:39;5.72;;;1.70;;
77513;SDS011;66626;48.872;9.084;2023-12-20T12:53:04;4.63;;;1.50;;
77513;SDS011;66626;48.872;9.084;2023-12-20T12:55:30;4.63;;;1.35;;
77513;SDS011;66626;48.872;9.084;2023-12-20T12:57:55;6.97;;;1.48;;
77513;SDS011;66626;48.872;9.084;2023-12-20T13:00:20;4.90;;;1.55;;
77513;SDS011;66626;48.872;9.084;2023-12-20T13:02:46;3.35;;;1.17;;
77513;SDS011;66626;48.872;9.084;2023-12-20T13:05:12;5.03;;;1.27;;
77513;SDS011;66626;48.872;9.084;2023-12-20T13:07:37;3.47;;;1.02;;
77513;SDS011;66626;48.872;9.084;2023-12-20T13:10:04;4.03;;;1.27;;
77513;SDS011;66626;48.872;9.084;2023-12-20T13:12:30;6.97;;;1.35;;
77513;SDS011;66626;48.872;9.084;2023-12-20T13:14:57;4.20;;;1.35;;
77513;SDS011;66626;48.872;9.084;2023-12-20T13:17:22;4.43;;;1.40;;
77513;SDS011;66626;48.872;9.084;2023-12-20T13:19:47;3.08;;;1.00;;
77513;SDS011;66626;48.872;9.084;2023-12-20T13:22:13;2.85;;;0.95;;
77513;SDS011;66626;48.872;9.084;2023-12-20T13:24:38;2.65;;;1.00;;
77513;SDS011;66626;48.872;9.084;2023-12-20T13:27:03;4.30;;;1.00;;
77513;SDS011;66626;48.872;9.084;2023-12-20T13:29:29;4.50;;;1.05;;
77513;SDS011;66626;48.872;9.084;2023-12-20T13:31:54;5.55;;;1.20;;
77513;SDS011;66626;48.872;9.084;2023-12-20T13:34:19;5.43;;;1.10;;
77513;SDS011;66626;48.872;9.084;2023-12-20T13:36:45;2.50;;;1.00;;
77513;SDS011;66626;48.872;9.084;2023-12-20T13:39:14;9.65;;;1.77;;
77513;SDS011;66626;48.872;9.084;2023-12-20T13:41:40;6.40;;;1.38;;
77513;SDS011;66626;48.872;9.084;2023-12-20T13:44:05;4.32;;;1.42;;
77513;SDS011;66626;48.872;9.084;2023-12-20T13:46:30;6.57;;;1.88;;
77513;SDS011;66626;48.872;9.084;2023-12-20T13:48:56;2.45;;;1.10;;
77513;SDS011;66626;48.872;9.084;2023-12-20T13:51:21;5.85;;;1.40;;
77513;SDS011;66626;48.872;9.084;2023-12-20T13:53:47;4.00;;;1.40;;
77513;SDS011;66626;48.872;9.084;2023-12-20T13:56:13;2.67;;;1.20;;
77513;SDS011;66626;48.872;9.084;2023-12-20T13:58:39;2.97;;;0.95;;
77513;SDS011;66626;48.872;9.084;2023-12-20T14:01:06;7.40;;;1.33;;
77513;SDS011;66626;48.872;9.084;2023-12-20T14:03:32;6.15;;;2.00;;
77513;SDS011;66626;48.872;9.084;2023-12-20T14:05:57;6.25;;;1.20;;
77513;SDS011;66626;48.872;9.084;2023-12-20T14:08:22;7.20;;;1.45;;
77513;SDS011;66626;48.872;9.084;2023-12-20T14:10:48;7.68;;;1.27;;
77513;SDS011;66626;48.872;9.084;2023-12-20T14:13:13;5.95;;;1.00;;
77513;SDS011;66626;48.872;9.084;2023-12-20T14:15:39;8.23;;;1.73;;
77513;SDS011;66626;48.872;9.084;2023-12-20T14:18:05;11.70;;;2.13;;
77513;SDS011;66626;48.872;9.084;2023-12-20T14:20:34;7.35;;;1.60;;
77513;SDS011;66626;48.872;9.084;2023-12-20T14:23:00;6.75;;;1.83;;
77513;SDS011;66626;48.872;9.084;2023-12-20T14:25:26;4.75;;;1.63;;
77513;SDS011;66626;48.872;9.084;2023-12-20T14:27:51;2.47;;;0.90;;
77513;SDS011;66626;48.872;9.084;2023-12-20T14:30:17;5.60;;;1.77;;
77513;SDS011;66626;48.872;9.084;2023-12-20T14:32:42;8.23;;;1.40;;
77513;SDS011;66626;48.872;9.084;2023-12-20T14:35:08;4.63;;;1.20;;
77513;SDS011;66626;48.872;9.084;2023-12-20T14:37:34;3.60;;;0.70;;
77513;SDS011;66626;48.872;9.084;2023-12-20T14:40:02;8.93;;;1.60;;
77513;SDS011;66626;48.872;9.084;2023-12-20T14:42:30;5.57;;;1.20;;
77513;SDS011;66626;48.872;9.084;2023-12-20T14:44:58;9.50;;;1.85;;
77513;SDS011;66626;48.872;9.084;2023-12-20T14:47:29;2.40;;;1.05;;